Portada
METAR-TAF:

METAR-TAF

Aeroports :

Aeroport de Milà-Linate

Milà, Itàlia

latitud: 45-26N, longitud: 009-17E, altitud: 107 m

Observació

L'informe es va fer fa 17 minuts, a les 11:50 UTC
Vent 5 kt del Sud, variant entre Nord-Est i Sud-Oest
Temperatura 27°C
Humitat 58%
Pressió 1018 hPa
Visibilitat 10 km o més
Escasses núvols a una alçada de 3000 ft

METAR: LIML 041150Z 17005KT 050V220 9999 FEW030 27/18 Q1018 NOSIG

Hora: 14:07 (12:07 UTC)

Pronòstic

L'informe es va fer fa 1 hora i 7 minuts, a les 11:00 UTC
Pronòstic vàlid del 04 a les 12 UTC al 05 a les 12 UTC
Vent 5 kt amb direcció variable
Visibilitat 10 km o més
Núvols disperses a una alçada de 5000 ft

TAF: LIML 041100Z 0412/0512 VRB05KT 9999 SCT050

Observacions i pronòstics meteorològics de més de 4000 aeroports (METAR i TAF).

Les estacions disponibles són els punts grocs i vermells al mapa.

Posi el ratolí al punt desitjat per veure el nom de l'estació.

Feu clic per veure les observacions i els pronòstics meteorològics.

Per canviar el mapa: feu clic els botons verds amb una creu de color negre per apropar; al botó verd amb un guió per allunyar la imatge; o en les fletxes verdes per a mapes adjacents.


METAR-TAF: